Time;durP1;ratioP1;P1;durP2;ratioP2;P2;SDS_P1;SDS_P2;PMS_P1;PMS_P2;Temp;Humidity;BMP_temperature;BMP_pressure;BME280_temperature;BME280_humidity;BME280_pressure;Samples;Min_cycle;Max_cycle;Signal;HPM_P1;HPM_P2
2021/12/27 00:02:46;;;;;;;30.30;13.37;;;;;2.20;95338.00;;;;8276007;28;20233;-69
2021/12/27 00:06:50;;;;;;;29.47;14.00;;;;;2.30;95340.00;;;;8282849;28;20257;-69
2021/12/27 00:10:54;;;;;;;32.17;12.67;;;;;2.30;95339.00;;;;8278487;28;20311;-69
2021/12/27 00:14:57;;;;;;;36.80;13.30;;;;;2.20;95330.00;;;;8283306;28;20781;-69
2021/12/27 00:19:00;;;;;;;30.27;13.57;;;;;2.20;95325.00;;;;8284779;28;20612;-70
2021/12/27 00:23:04;;;;;;;38.37;13.73;;;;;2.20;95334.00;;;;8276399;28;20223;-68
2021/12/27 00:27:08;;;;;;;33.60;13.10;;;;;2.20;95326.00;;;;8281580;28;20628;-70
2021/12/27 00:31:11;;;;;;;29.60;13.40;;;;;2.20;95325.00;;;;8266176;28;20326;-69
2021/12/27 00:35:17;;;;;;;37.43;13.20;;;;;2.30;95321.00;;;;8270988;28;20651;-69
2021/12/27 00:39:21;;;;;;;43.23;15.10;;;;;2.20;95320.00;;;;8266937;28;20250;-70
2021/12/27 00:43:25;;;;;;;36.00;13.77;;;;;2.20;95322.00;;;;8279075;28;20315;-69
2021/12/27 00:47:29;;;;;;;31.97;13.77;;;;;2.20;95325.00;;;;8274033;28;20877;-69
2021/12/27 00:51:32;;;;;;;39.37;14.10;;;;;2.20;95318.00;;;;8274823;28;20314;-69
2021/12/27 00:55:35;;;;;;;31.20;13.43;;;;;2.20;95324.00;;;;8274584;28;20254;-68
2021/12/27 00:59:40;;;;;;;39.33;14.63;;;;;2.20;95315.00;;;;8269967;28;20310;-69
2021/12/27 01:03:43;;;;;;;33.00;13.13;;;;;2.30;95300.00;;;;8272034;28;20248;-68
2021/12/27 01:07:47;;;;;;;37.53;14.13;;;;;2.30;95308.00;;;;8267259;28;20319;-68
2021/12/27 01:12:10;;;;;;;40.73;14.67;;;;;2.10;95309.00;;;;8277319;28;20319;-68
2021/12/27 01:16:16;;;;;;;41.70;14.33;;;;;2.10;95318.00;;;;8281317;28;20327;-69
2021/12/27 01:20:22;;;;;;;41.67;14.37;;;;;2.10;95309.00;;;;8275658;28;20319;-68
2021/12/27 01:24:26;;;;;;;38.37;14.80;;;;;2.10;95309.00;;;;8270844;28;20580;-69
2021/12/27 01:28:29;;;;;;;33.50;13.33;;;;;2.20;95302.00;;;;8279581;28;20306;-68
2021/12/27 01:32:38;;;;;;;44.93;14.30;;;;;2.10;95297.00;;;;8281264;28;20318;-68
2021/12/27 01:36:41;;;;;;;38.20;13.73;;;;;2.20;95297.00;;;;8268376;28;20262;-68
2021/12/27 01:40:48;;;;;;;33.80;13.70;;;;;2.10;95301.00;;;;8277667;28;20687;-69
2021/12/27 01:44:51;;;;;;;37.37;13.00;;;;;2.20;95304.00;;;;8275783;28;20255;-68
2021/12/27 01:48:57;;;;;;;38.23;15.03;;;;;2.20;95309.00;;;;8262538;28;20230;-68
2021/12/27 01:53:00;;;;;;;43.73;12.63;;;;;2.20;95296.00;;;;8269457;28;20281;-68
2021/12/27 01:57:04;;;;;;;39.53;14.60;;;;;2.20;95287.00;;;;8282278;28;20226;-68
2021/12/27 02:01:09;;;;;;;40.10;15.33;;;;;2.20;95270.00;;;;8293237;28;20257;-68
2021/12/27 02:05:15;;;;;;;35.73;13.90;;;;;2.10;95276.00;;;;8270038;28;20589;-69
2021/12/27 02:09:21;;;;;;;41.97;14.87;;;;;2.10;95276.00;;;;8276303;28;20267;-69
2021/12/27 02:13:25;;;;;;;40.63;15.63;;;;;2.10;95275.00;;;;8273451;28;20760;-68
2021/12/27 02:17:28;;;;;;;43.20;15.97;;;;;2.20;95270.00;;;;8279544;28;20220;-69
2021/12/27 02:21:32;;;;;;;44.83;16.27;;;;;2.20;95275.00;;;;8271689;28;20251;-69
2021/12/27 02:25:36;;;;;;;44.83;16.33;;;;;2.20;95265.00;;;;8270072;28;20303;-68
2021/12/27 02:29:39;;;;;;;41.23;15.70;;;;;2.30;95268.00;;;;8275044;28;20835;-69
2021/12/27 02:33:43;;;;;;;47.47;16.67;;;;;2.20;95263.00;;;;8277257;28;20228;-68
2021/12/27 02:37:48;;;;;;;41.57;16.07;;;;;2.30;95271.00;;;;8271226;28;20717;-68
2021/12/27 02:41:51;;;;;;;50.33;18.13;;;;;2.20;95270.00;;;;8268253;28;20271;-69
2021/12/27 02:45:55;;;;;;;39.23;15.53;;;;;2.20;95271.00;;;;8268282;28;20265;-68
2021/12/27 02:49:59;;;;;;;48.17;16.77;;;;;2.10;95275.00;;;;8274335;28;20256;-68
2021/12/27 02:54:03;;;;;;;45.63;16.70;;;;;2.20;95272.00;;;;8274589;28;20348;-68
2021/12/27 02:58:07;;;;;;;53.00;18.83;;;;;2.10;95259.00;;;;8268084;28;20335;-68
2021/12/27 03:02:25;;;;;;;39.53;16.50;;;;;2.10;95271.00;;;;8314471;23;20318;-69
2021/12/27 03:06:29;;;;;;;43.97;16.23;;;;;2.00;95252.00;;;;8309725;28;20321;-68
2021/12/27 03:10:34;;;;;;;52.63;18.17;;;;;2.10;95256.00;;;;8300003;28;20235;-68
2021/12/27 03:14:38;;;;;;;49.20;18.13;;;;;2.10;95255.00;;;;8295900;28;20271;-68
2021/12/27 03:18:43;;;;;;;51.57;18.30;;;;;2.10;95246.00;;;;8298655;28;20247;-68
2021/12/27 03:22:47;;;;;;;49.30;17.97;;;;;2.10;95245.00;;;;8311031;28;20650;-69
2021/12/27 03:26:51;;;;;;;50.60;18.53;;;;;2.10;95250.00;;;;8305728;28;20248;-69
2021/12/27 03:30:54;;;;;;;54.90;19.10;;;;;2.10;95249.00;;;;8311480;28;20273;-68
2021/12/27 03:35:07;;;;;;;55.53;19.73;;;;;2.00;95239.00;;;;8307686;28;20270;-68
2021/12/27 03:39:11;;;;;;;54.87;18.37;;;;;2.00;95241.00;;;;8310047;28;20256;-69
2021/12/27 03:43:16;;;;;;;74.17;20.57;;;;;2.10;95240.00;;;;8308227;28;20239;-68
2021/12/27 03:47:19;;;;;;;61.87;18.53;;;;;2.10;95239.00;;;;8312558;28;20651;-68
2021/12/27 03:51:22;;;;;;;59.83;18.93;;;;;2.10;95232.00;;;;8304672;28;20314;-68
2021/12/27 03:55:26;;;;;;;65.00;20.17;;;;;2.10;95233.00;;;;8310518;28;20764;-69
2021/12/27 03:59:50;;;;;;;59.87;19.93;;;;;2.10;95246.00;;;;8311722;28;20259;-69
2021/12/27 04:03:57;;;;;;;55.93;19.37;;;;;2.10;95243.00;;;;8303631;28;20262;-68
2021/12/27 04:08:09;;;;;;;63.33;18.33;;;;;2.00;95243.00;;;;8311808;28;20231;-68
2021/12/27 04:12:12;;;;;;;54.03;18.87;;;;;1.90;95242.00;;;;8307875;28;20330;-69
2021/12/27 04:16:16;;;;;;;59.23;20.63;;;;;1.90;95245.00;;;;8318666;28;20310;-68
2021/12/27 04:20:21;;;;;;;62.37;19.80;;;;;1.90;95250.00;;;;8311249;28;20236;-68
2021/12/27 04:24:24;;;;;;;65.27;20.33;;;;;2.00;95242.00;;;;8313239;28;20732;-69
2021/12/27 04:28:28;;;;;;;62.70;21.10;;;;;2.10;95241.00;;;;8313317;28;20915;-70
2021/12/27 04:32:32;;;;;;;75.40;20.70;;;;;2.10;95239.00;;;;8318811;28;20773;-70
2021/12/27 04:36:35;;;;;;;62.63;20.23;;;;;2.10;95240.00;;;;8318476;28;20322;-69
2021/12/27 04:40:42;;;;;;;67.57;21.23;;;;;2.10;95239.00;;;;8317774;28;20312;-70
2021/12/27 04:44:45;;;;;;;66.53;21.53;;;;;2.20;95242.00;;;;8318331;28;20251;-70
2021/12/27 04:48:52;;;;;;;64.70;19.80;;;;;2.20;95240.00;;;;8310197;28;20905;-68
2021/12/27 04:52:55;;;;;;;73.00;20.50;;;;;2.20;95237.00;;;;8317983;28;20896;-69
2021/12/27 04:56:58;;;;;;;69.40;21.43;;;;;2.20;95240.00;;;;8316376;28;20265;-68
2021/12/27 05:01:01;;;;;;;53.57;20.57;;;;;2.10;95242.00;;;;8312374;28;20683;-71
2021/12/27 05:05:07;;;;;;;48.33;18.50;;;;;2.20;95244.00;;;;8301546;28;20366;-69
2021/12/27 05:09:11;;;;;;;72.57;21.43;;;;;2.20;95246.00;;;;8310561;28;20254;-69
2021/12/27 05:13:14;;;;;;;76.37;21.63;;;;;2.20;95240.00;;;;8306634;28;20306;-70
2021/12/27 05:17:17;;;;;;;81.43;22.27;;;;;2.20;95233.00;;;;8305929;28;20725;-70
2021/12/27 05:21:22;;;;;;;82.37;22.30;;;;;2.20;95230.00;;;;8306871;28;20680;-70
2021/12/27 05:25:25;;;;;;;70.17;20.23;;;;;2.20;95232.00;;;;8305038;28;20484;-69
2021/12/27 05:29:28;;;;;;;63.23;20.43;;;;;2.20;95241.00;;;;8308881;28;20233;-70
2021/12/27 05:33:31;;;;;;;65.30;20.63;;;;;2.20;95231.00;;;;8312424;28;20259;-69
2021/12/27 05:37:37;;;;;;;73.87;20.77;;;;;2.20;95229.00;;;;8307202;28;20224;-70
2021/12/27 05:41:41;;;;;;;75.00;22.93;;;;;2.20;95220.00;;;;8294161;28;20797;-70
2021/12/27 05:45:44;;;;;;;92.07;33.67;;;;;2.20;95228.00;;;;8304078;28;20675;-71
2021/12/27 05:49:47;;;;;;;72.13;22.37;;;;;2.10;95234.00;;;;8303867;28;20221;-70
2021/12/27 05:53:52;;;;;;;89.10;24.97;;;;;2.20;95228.00;;;;8301078;28;20326;-70
2021/12/27 05:57:56;;;;;;;64.63;21.17;;;;;2.20;95235.00;;;;8300835;28;20246;-70
2021/12/27 06:01:59;;;;;;;74.33;22.67;;;;;2.10;95226.00;;;;8308641;28;20266;-71
2021/12/27 06:06:02;;;;;;;80.43;26.00;;;;;2.10;95223.00;;;;8294482;28;20226;-70
2021/12/27 06:10:08;;;;;;;83.23;21.93;;;;;2.20;95226.00;;;;8301093;28;20326;-71
2021/12/27 06:14:12;;;;;;;111.07;44.27;;;;;2.20;95223.00;;;;8304659;28;20262;-71
2021/12/27 06:18:16;;;;;;;108.77;38.43;;;;;2.20;95218.00;;;;8302144;28;20313;-70
2021/12/27 06:22:20;;;;;;;85.93;27.23;;;;;2.20;95223.00;;;;8303230;28;20241;-71
2021/12/27 06:26:24;;;;;;;87.67;28.87;;;;;2.20;95216.00;;;;8303052;28;20309;-70
2021/12/27 06:30:27;;;;;;;70.93;22.90;;;;;2.20;95213.00;;;;8303615;28;20317;-70
2021/12/27 06:34:31;;;;;;;84.47;25.43;;;;;2.20;95215.00;;;;8300824;28;20318;-71
2021/12/27 06:38:34;;;;;;;71.33;20.77;;;;;2.20;95216.00;;;;8293004;28;20251;-69
2021/12/27 06:42:39;;;;;;;78.23;22.30;;;;;2.20;95219.00;;;;8300773;28;20255;-69
2021/12/27 06:46:43;;;;;;;79.20;21.17;;;;;2.20;95213.00;;;;8298810;28;20246;-71
2021/12/27 06:50:46;;;;;;;80.13;23.17;;;;;2.10;95212.00;;;;8300490;28;20684;-70
2021/12/27 06:54:49;;;;;;;68.37;20.50;;;;;2.10;95197.00;;;;8304321;28;20351;-70
2021/12/27 06:58:54;;;;;;;59.83;18.33;;;;;2.10;95216.00;;;;8303589;28;20522;-70
2021/12/27 07:02:57;;;;;;;81.07;21.17;;;;;2.00;95223.00;;;;8308792;28;20268;-69
2021/12/27 07:07:01;;;;;;;80.10;20.53;;;;;2.00;95221.00;;;;8301832;28;20270;-70
2021/12/27 07:11:06;;;;;;;90.87;23.67;;;;;2.00;95226.00;;;;8311747;28;20251;-70
2021/12/27 07:15:11;;;;;;;91.73;24.53;;;;;2.10;95217.00;;;;8310918;28;20350;-70
2021/12/27 07:19:14;;;;;;;85.03;23.67;;;;;2.10;95216.00;;;;8310955;28;20272;-69
2021/12/27 07:23:18;;;;;;;93.60;24.13;;;;;2.10;95210.00;;;;8307890;28;20343;-69
2021/12/27 07:27:22;;;;;;;92.50;23.40;;;;;2.20;95218.00;;;;8318781;28;20334;-69
2021/12/27 07:31:26;;;;;;;102.80;23.93;;;;;2.20;95234.00;;;;8309554;28;20320;-70
2021/12/27 07:35:30;;;;;;;100.40;24.80;;;;;2.10;95224.00;;;;8319066;28;20253;-69
2021/12/27 07:39:33;;;;;;;100.70;24.70;;;;;2.20;95223.00;;;;8309437;28;20972;-69
2021/12/27 07:43:37;;;;;;;110.53;25.70;;;;;2.20;95225.00;;;;8316201;28;20319;-70
2021/12/27 07:47:41;;;;;;;106.20;26.07;;;;;2.20;95227.00;;;;8307230;28;20677;-69
2021/12/27 07:51:45;;;;;;;104.57;26.17;;;;;2.30;95219.00;;;;8307823;28;20328;-69
2021/12/27 07:55:48;;;;;;;136.87;32.63;;;;;2.20;95218.00;;;;8303966;28;20306;-70
2021/12/27 07:59:52;;;;;;;145.80;34.20;;;;;2.30;95209.00;;;;8304919;28;20244;-70
2021/12/27 08:03:56;;;;;;;142.67;32.20;;;;;2.30;95208.00;;;;8311171;28;20658;-71
2021/12/27 08:08:02;;;;;;;141.47;27.80;;;;;2.30;95213.00;;;;8299982;28;20231;-69
2021/12/27 08:12:09;;;;;;;123.73;26.13;;;;;2.30;95206.00;;;;8300540;28;20239;-71
2021/12/27 08:16:12;;;;;;;135.60;28.13;;;;;2.30;95210.00;;;;8305108;28;20246;-70
2021/12/27 08:20:18;;;;;;;134.23;29.30;;;;;2.40;95206.00;;;;8306538;28;20929;-70
2021/12/27 08:24:21;;;;;;;128.67;29.20;;;;;2.30;95207.00;;;;8313115;28;20318;-69
2021/12/27 08:28:24;;;;;;;133.60;29.63;;;;;2.40;95208.00;;;;8303543;28;20302;-69
2021/12/27 08:32:28;;;;;;;140.17;31.67;;;;;2.40;95197.00;;;;8305267;28;20964;-70
2021/12/27 08:36:32;;;;;;;137.70;28.80;;;;;2.40;95188.00;;;;8311873;28;20258;-69
2021/12/27 08:40:36;;;;;;;131.73;29.40;;;;;2.40;95186.00;;;;8304033;28;20625;-70
2021/12/27 08:44:39;;;;;;;124.17;29.67;;;;;2.40;95192.00;;;;8321487;28;20905;-70
2021/12/27 08:48:43;;;;;;;153.40;30.03;;;;;2.40;95195.00;;;;8311724;28;20303;-71
2021/12/27 08:52:50;;;;;;;155.27;32.30;;;;;2.40;95194.00;;;;8304846;28;20234;-69
2021/12/27 08:56:53;;;;;;;149.67;29.73;;;;;2.50;95192.00;;;;8303180;28;20306;-73
2021/12/27 09:00:57;;;;;;;152.73;29.03;;;;;2.50;95189.00;;;;8310462;28;20310;-74
2021/12/27 09:05:00;;;;;;;134.17;29.63;;;;;2.60;95198.00;;;;8308138;28;20264;-73
2021/12/27 09:09:05;;;;;;;152.57;29.77;;;;;2.60;95197.00;;;;8308313;28;20266;-75
2021/12/27 09:13:08;;;;;;;150.90;29.23;;;;;2.60;95211.00;;;;8296395;28;20314;-75
2021/12/27 09:17:12;;;;;;;137.73;30.57;;;;;2.70;95207.00;;;;8306534;28;20259;-74
2021/12/27 09:21:15;;;;;;;142.80;30.53;;;;;2.70;95197.00;;;;8303470;28;20255;-75
2021/12/27 09:25:20;;;;;;;129.20;29.83;;;;;2.70;95202.00;;;;8296121;28;20292;-76
2021/12/27 09:29:24;;;;;;;143.27;31.37;;;;;2.70;95187.00;;;;8308562;28;20971;-76
2021/12/27 09:33:27;;;;;;;139.50;29.43;;;;;2.70;95194.00;;;;8309753;28;20223;-77
2021/12/27 09:37:30;;;;;;;126.27;29.93;;;;;2.70;95194.00;;;;8299858;28;20354;-76
2021/12/27 09:41:35;;;;;;;123.17;29.70;;;;;2.70;95189.00;;;;8306553;28;20225;-76
2021/12/27 09:45:39;;;;;;;139.43;30.30;;;;;2.70;95182.00;;;;8303727;28;20808;-77
2021/12/27 09:49:42;;;;;;;136.00;31.13;;;;;2.70;95194.00;;;;8305826;28;20621;-77
2021/12/27 09:53:52;;;;;;;120.07;27.83;;;;;2.70;95176.00;;;;8309367;28;20303;-78
2021/12/27 09:57:59;;;;;;;127.90;30.43;;;;;2.70;95174.00;;;;8300587;28;20257;-79
2021/12/27 10:02:06;;;;;;;139.63;31.17;;;;;2.80;95185.00;;;;8306983;28;20272;-77
2021/12/27 10:06:11;;;;;;;106.90;26.67;;;;;2.80;95172.00;;;;8312312;28;20798;-80
2021/12/27 10:10:14;;;;;;;128.27;30.20;;;;;2.80;95167.00;;;;8310877;28;20249;-77
2021/12/27 10:14:20;;;;;;;132.30;28.97;;;;;2.80;95164.00;;;;8309788;28;20328;-79
2021/12/27 10:18:24;;;;;;;125.33;29.57;;;;;2.80;95162.00;;;;8304909;28;20308;-73
2021/12/27 10:22:27;;;;;;;130.13;29.33;;;;;2.90;95141.00;;;;8309730;28;20787;-73
2021/12/27 10:26:31;;;;;;;138.10;30.13;;;;;3.00;95147.00;;;;8308918;28;20234;-73
2021/12/27 10:30:41;;;;;;;140.83;29.87;;;;;3.00;95160.00;;;;8309183;28;20229;-74
2021/12/27 10:34:47;;;;;;;121.03;30.63;;;;;3.00;95162.00;;;;8312488;28;20326;-75
2021/12/27 10:38:54;;;;;;;118.33;29.57;;;;;3.10;95157.00;;;;8311433;28;20369;-75
2021/12/27 10:43:27;;;;;;;133.83;30.67;;;;;3.10;95159.00;;;;8290132;28;20247;-75
2021/12/27 10:47:44;;;;;;;135.83;29.40;;;;;3.10;95149.00;;;;8291903;28;20232;-77
2021/12/27 10:51:49;;;;;;;108.73;28.23;;;;;3.10;95152.00;;;;8317120;28;20231;-75
2021/12/27 10:55:53;;;;;;;122.77;29.90;;;;;3.10;95155.00;;;;8311539;28;20270;-78
2021/12/27 11:00:22;;;;;;;114.90;28.20;;;;;3.10;95142.00;;;;8313487;28;20242;-77
2021/12/27 11:04:27;;;;;;;127.23;29.27;;;;;3.10;95129.00;;;;8313090;28;20260;-77
2021/12/27 11:08:32;;;;;;;128.17;29.90;;;;;3.20;95131.00;;;;8304027;28;20262;-76
2021/12/27 11:12:35;;;;;;;131.60;28.87;;;;;3.20;95131.00;;;;8312951;28;20701;-76
2021/12/27 11:16:38;;;;;;;131.90;28.50;;;;;3.20;95129.00;;;;8312006;28;20300;-75
2021/12/27 11:20:46;;;;;;;123.70;28.20;;;;;3.20;95126.00;;;;8306639;28;20273;-76
2021/12/27 11:24:50;;;;;;;125.83;27.67;;;;;3.20;95122.00;;;;8307910;28;20758;-77
2021/12/27 11:28:53;;;;;;;117.33;28.33;;;;;3.20;95108.00;;;;8308969;28;20273;-77
2021/12/27 11:33:02;;;;;;;114.30;27.67;;;;;3.20;95111.00;;;;8311113;28;20324;-77
2021/12/27 11:37:10;;;;;;;126.83;28.07;;;;;3.30;95107.00;;;;8300011;28;20298;-77
2021/12/27 11:41:35;;;;;;;108.87;26.97;;;;;3.20;95104.00;;;;8313186;28;20319;-76
2021/12/27 11:46:17;;;;;;;119.03;27.03;;;;;3.20;95104.00;;;;8300671;28;20236;-75
2021/12/27 11:50:23;;;;;;;107.33;24.97;;;;;3.20;95099.00;;;;8311866;28;20268;-76
2021/12/27 11:54:30;;;;;;;113.50;26.93;;;;;3.20;95087.00;;;;8298085;28;20260;-75
2021/12/27 11:58:36;;;;;;;141.63;28.23;;;;;3.30;95076.00;;;;8305976;28;20228;-74
2021/12/27 12:02:39;;;;;;;112.60;26.43;;;;;3.20;95065.00;;;;8307034;28;20752;-75
2021/12/27 12:06:44;;;;;;;121.70;29.20;;;;;3.20;95057.00;;;;8310957;28;20300;-76
2021/12/27 12:10:57;;;;;;;131.97;26.27;;;;;3.20;95047.00;;;;8305075;28;20673;-76
2021/12/27 12:15:01;;;;;;;111.10;26.87;;;;;3.30;95061.00;;;;8303365;28;20269;-74
2021/12/27 12:19:09;;;;;;;107.30;25.43;;;;;3.40;95045.00;;;;8305863;28;20237;-75
2021/12/27 12:23:13;;;;;;;111.13;27.27;;;;;3.40;95051.00;;;;8311774;28;20227;-75
2021/12/27 12:27:17;;;;;;;132.83;29.97;;;;;3.50;95047.00;;;;8305411;28;20255;-76
2021/12/27 12:31:28;;;;;;;104.33;26.03;;;;;3.50;95045.00;;;;8305717;28;20256;-75
2021/12/27 12:35:37;;;;;;;117.53;26.33;;;;;3.60;95030.00;;;;8298684;28;20719;-77
2021/12/27 12:39:43;;;;;;;114.43;27.17;;;;;3.60;95022.00;;;;8299899;28;20635;-77
2021/12/27 12:43:50;;;;;;;127.23;25.47;;;;;3.60;95007.00;;;;8304487;28;20241;-78
2021/12/27 12:47:54;;;;;;;133.93;26.83;;;;;3.60;95006.00;;;;8308299;28;20647;-77
2021/12/27 12:52:03;;;;;;;128.50;27.70;;;;;3.60;95008.00;;;;8305864;28;20709;-75
2021/12/27 12:56:07;;;;;;;112.93;26.30;;;;;3.70;95010.00;;;;8313401;28;20233;-77
2021/12/27 13:00:14;;;;;;;117.63;26.93;;;;;3.80;95019.00;;;;8299787;28;20379;-77
2021/12/27 13:04:17;;;;;;;115.27;27.00;;;;;3.80;95025.00;;;;8302776;28;20311;-77
2021/12/27 13:08:20;;;;;;;101.00;26.27;;;;;3.80;95024.00;;;;8294749;28;20286;-77
2021/12/27 13:12:26;;;;;;;95.00;24.97;;;;;3.80;95024.00;;;;8302884;28;20312;-77
2021/12/27 13:16:31;;;;;;;102.20;26.27;;;;;3.80;95019.00;;;;8304973;28;20235;-76
2021/12/27 13:20:37;;;;;;;87.97;24.70;;;;;3.90;95029.00;;;;8300609;28;20235;-76
2021/12/27 13:24:52;;;;;;;111.70;25.43;;;;;3.90;95027.00;;;;8307787;28;20285;-78
2021/12/27 13:28:55;;;;;;;99.77;24.70;;;;;3.80;95015.00;;;;8305807;28;20236;-76
2021/12/27 13:33:00;;;;;;;82.70;25.03;;;;;3.80;95008.00;;;;8307424;28;20721;-77
2021/12/27 13:37:04;;;;;;;84.80;22.23;;;;;3.70;95015.00;;;;8307699;28;20320;-76
2021/12/27 13:41:08;;;;;;;103.13;24.47;;;;;3.60;95011.00;;;;8306132;28;20257;-77
2021/12/27 13:45:14;;;;;;;94.00;24.47;;;;;3.50;95003.00;;;;8301891;28;20314;-77
2021/12/27 13:49:19;;;;;;;107.17;24.97;;;;;3.40;95003.00;;;;8304796;28;20272;-76
2021/12/27 13:53:25;;;;;;;113.63;24.17;;;;;3.40;95010.00;;;;8301798;28;20236;-77
2021/12/27 13:57:32;;;;;;;96.57;23.47;;;;;3.40;95018.00;;;;8298622;28;20655;-76
2021/12/27 14:01:36;;;;;;;114.20;23.77;;;;;3.40;95018.00;;;;8296301;28;20829;-76
2021/12/27 14:05:52;;;;;;;131.10;25.13;;;;;3.60;95009.00;;;;8301549;28;20656;-77
2021/12/27 14:09:55;;;;;;;116.90;23.87;;;;;3.60;95013.00;;;;8301295;28;20652;-78
2021/12/27 14:14:03;;;;;;;124.87;24.23;;;;;3.50;95013.00;;;;8304948;28;20347;-75
2021/12/27 14:18:11;;;;;;;111.77;23.10;;;;;3.50;94996.00;;;;8305087;28;20715;-77
2021/12/27 14:22:19;;;;;;;103.93;24.27;;;;;3.50;94996.00;;;;8301835;28;20797;-74
2021/12/27 14:26:22;;;;;;;107.53;22.87;;;;;3.50;94992.00;;;;8294068;28;20228;-77
2021/12/27 14:30:27;;;;;;;95.00;21.53;;;;;3.40;94989.00;;;;8299741;28;20315;-77
2021/12/27 14:34:53;;;;;;;96.77;23.53;;;;;3.30;94978.00;;;;8303578;28;20232;-78
2021/12/27 14:38:57;;;;;;;104.03;24.07;;;;;3.30;94998.00;;;;8286337;28;20238;-78
2021/12/27 14:43:01;;;;;;;97.73;22.40;;;;;3.30;94991.00;;;;8313187;28;20326;-78
2021/12/27 14:47:05;;;;;;;110.47;24.20;;;;;3.40;95000.00;;;;8296795;28;20278;-78
2021/12/27 14:51:09;;;;;;;91.00;20.57;;;;;3.40;94996.00;;;;8298752;28;20811;-78
2021/12/27 14:55:15;;;;;;;102.97;23.00;;;;;3.20;94992.00;;;;8295252;28;20231;-78
2021/12/27 14:59:18;;;;;;;88.13;21.40;;;;;3.10;94998.00;;;;8296233;28;20267;-77
2021/12/27 15:03:23;;;;;;;81.73;21.33;;;;;3.00;95005.00;;;;8308985;28;20629;-77
2021/12/27 15:07:26;;;;;;;108.40;22.03;;;;;2.90;95015.00;;;;8300936;28;20721;-78
2021/12/27 15:11:32;;;;;;;87.83;20.83;;;;;2.90;95013.00;;;;8301468;28;20724;-78
2021/12/27 15:15:35;;;;;;;85.63;22.40;;;;;2.90;95012.00;;;;8311377;28;20253;-77
2021/12/27 15:19:38;;;;;;;74.60;19.97;;;;;2.80;95019.00;;;;8303365;28;20227;-78
2021/12/27 15:23:41;;;;;;;83.47;19.53;;;;;2.80;95021.00;;;;8317076;28;20640;-78
2021/12/27 15:27:46;;;;;;;72.67;17.97;;;;;2.70;95010.00;;;;8300062;28;20257;-78
2021/12/27 15:31:50;;;;;;;58.00;18.40;;;;;2.60;95003.00;;;;8308686;28;20317;-78
2021/12/27 15:35:53;;;;;;;74.73;19.37;;;;;2.60;95016.00;;;;8312594;28;20272;-78
2021/12/27 15:39:56;;;;;;;76.70;19.83;;;;;2.60;95011.00;;;;8306577;28;20313;-79
2021/12/27 15:44:01;;;;;;;86.00;19.27;;;;;2.60;95012.00;;;;8303286;28;20654;-79
2021/12/27 15:48:08;;;;;;;89.53;20.57;;;;;2.50;95015.00;;;;8304741;28;20324;-78
2021/12/27 15:52:11;;;;;;;88.50;22.27;;;;;2.50;95019.00;;;;8311966;28;20224;-77
2021/12/27 15:56:14;;;;;;;80.07;21.90;;;;;2.50;95027.00;;;;8302937;28;20306;-78
2021/12/27 16:00:21;;;;;;;75.07;20.97;;;;;2.50;95022.00;;;;8296613;28;20317;-78
2021/12/27 16:04:25;;;;;;;82.47;23.00;;;;;2.50;95029.00;;;;8301013;28;20660;-78
2021/12/27 16:08:28;;;;;;;83.03;23.67;;;;;2.60;95026.00;;;;8307953;28;20321;-78
2021/12/27 16:12:31;;;;;;;73.10;20.40;;;;;2.60;95034.00;;;;8310308;28;20701;-77
2021/12/27 16:16:36;;;;;;;73.23;20.03;;;;;2.70;95035.00;;;;8302374;28;20317;-76
2021/12/27 16:20:40;;;;;;;76.50;19.20;;;;;2.70;95036.00;;;;8303823;28;20913;-77
2021/12/27 16:24:43;;;;;;;70.90;19.27;;;;;2.80;95029.00;;;;8305492;28;20877;-78
2021/12/27 16:28:47;;;;;;;66.10;20.97;;;;;2.90;95035.00;;;;8302582;28;20233;-78
2021/12/27 16:32:53;;;;;;;82.50;21.63;;;;;2.80;95027.00;;;;8297913;28;20256;-78
2021/12/27 16:36:57;;;;;;;85.67;24.57;;;;;2.80;95033.00;;;;8300229;28;20323;-78
2021/12/27 16:41:00;;;;;;;88.57;22.73;;;;;2.80;95026.00;;;;8313033;28;20229;-78
2021/12/27 16:45:08;;;;;;;90.47;24.03;;;;;2.80;95029.00;;;;8297307;28;20267;-77
2021/12/27 16:49:13;;;;;;;111.70;23.07;;;;;2.70;95034.00;;;;8296569;28;20231;-76
2021/12/27 16:53:17;;;;;;;132.67;23.40;;;;;2.70;95030.00;;;;8294761;28;20340;-75
2021/12/27 16:57:20;;;;;;;175.00;25.20;;;;;2.70;95030.00;;;;8300247;28;20262;-76
2021/12/27 17:01:23;;;;;;;282.70;27.10;;;;;2.70;95030.00;;;;8301344;28;20646;-76
2021/12/27 17:05:30;;;;;;;290.97;27.73;;;;;2.80;95039.00;;;;8299587;28;20234;-76
2021/12/27 17:09:33;;;;;;;241.53;22.77;;;;;2.80;95037.00;;;;8303950;28;20284;-75
2021/12/27 17:13:36;;;;;;;510.47;34.07;;;;;2.90;95045.00;;;;8296519;28;20282;-77
2021/12/27 17:17:40;;;;;;;390.33;28.30;;;;;2.90;95037.00;;;;8302626;28;20262;-75
2021/12/27 17:21:44;;;;;;;442.00;31.90;;;;;2.90;95040.00;;;;8301466;28;20229;-75
2021/12/27 17:25:48;;;;;;;151.07;20.10;;;;;2.90;95046.00;;;;8305926;28;20303;-77
2021/12/27 17:29:56;;;;;;;375.50;30.17;;;;;2.90;95058.00;;;;8306797;28;20845;-77
2021/12/27 17:34:00;;;;;;;351.67;29.47;;;;;2.90;95056.00;;;;8302045;28;20246;-75
2021/12/27 17:38:05;;;;;;;440.43;33.13;;;;;2.90;95062.00;;;;8307167;28;20252;-75
2021/12/27 17:42:08;;;;;;;528.80;39.27;;;;;2.90;95065.00;;;;8291604;28;20385;-75
2021/12/27 17:46:11;;;;;;;384.67;32.17;;;;;2.90;95064.00;;;;8288310;28;20265;-77
2021/12/27 17:50:18;;;;;;;354.83;32.30;;;;;2.90;95073.00;;;;8305654;28;20334;-74
2021/12/27 17:54:22;;;;;;;483.30;34.60;;;;;3.00;95073.00;;;;8298488;28;20269;-77
2021/12/27 17:58:26;;;;;;;414.87;31.23;;;;;3.00;95073.00;;;;8302648;28;20333;-77
2021/12/27 18:02:29;;;;;;;195.30;27.30;;;;;3.00;95069.00;;;;8296976;28;20246;-77
2021/12/27 18:06:32;;;;;;;372.90;30.63;;;;;3.00;95070.00;;;;8306244;28;20246;-79
2021/12/27 18:10:37;;;;;;;364.27;30.27;;;;;3.10;95073.00;;;;8310703;28;20807;-77
2021/12/27 18:14:40;;;;;;;325.73;29.13;;;;;3.10;95066.00;;;;8306400;28;20308;-78
2021/12/27 18:18:44;;;;;;;373.27;31.37;;;;;3.10;95072.00;;;;8305603;28;20319;-78
2021/12/27 18:22:51;;;;;;;256.77;25.53;;;;;3.00;95070.00;;;;8302298;28;20319;-80
2021/12/27 18:26:56;;;;;;;225.53;24.37;;;;;3.00;95072.00;;;;8310375;28;20225;-79
2021/12/27 18:30:59;;;;;;;416.90;30.63;;;;;3.10;95065.00;;;;8306035;28;20269;-77
2021/12/27 18:35:04;;;;;;;405.43;28.97;;;;;3.10;95067.00;;;;8307828;28;20740;-80
2021/12/27 18:39:08;;;;;;;189.40;24.47;;;;;3.10;95074.00;;;;8308945;28;20241;-78
2021/12/27 18:43:13;;;;;;;369.03;29.47;;;;;3.10;95076.00;;;;8308972;28;20800;-78
2021/12/27 18:47:16;;;;;;;299.87;25.90;;;;;3.10;95073.00;;;;8300675;28;20265;-74
2021/12/27 18:51:21;;;;;;;185.60;23.33;;;;;3.10;95076.00;;;;8302535;28;20326;-76
2021/12/27 18:55:29;;;;;;;410.60;27.90;;;;;3.10;95074.00;;;;8290645;28;20335;-77
2021/12/27 18:59:33;;;;;;;227.77;24.13;;;;;3.20;95077.00;;;;8302888;28;20256;-79
2021/12/27 19:03:37;;;;;;;301.23;26.23;;;;;3.20;95083.00;;;;8308583;28;20771;-78
2021/12/27 19:07:40;;;;;;;175.23;23.87;;;;;3.30;95088.00;;;;8313245;28;20310;-77
2021/12/27 19:11:44;;;;;;;168.73;24.97;;;;;3.30;95088.00;;;;8312767;28;20227;-79
2021/12/27 19:15:49;;;;;;;126.27;27.80;;;;;3.30;95085.00;;;;8312032;28;20233;-74
2021/12/27 19:19:52;;;;;;;239.53;26.60;;;;;3.30;95078.00;;;;8312105;28;20280;-77
2021/12/27 19:23:58;;;;;;;111.30;21.67;;;;;3.30;95077.00;;;;8311930;28;20323;-76
2021/12/27 19:28:04;;;;;;;85.10;21.63;;;;;3.30;95076.00;;;;8308577;28;20259;-78
2021/12/27 19:32:09;;;;;;;104.93;24.03;;;;;3.30;95078.00;;;;8307915;28;20255;-77
2021/12/27 19:36:13;;;;;;;95.10;23.53;;;;;3.30;95082.00;;;;8307212;28;20250;-78
2021/12/27 19:40:16;;;;;;;98.77;23.40;;;;;3.30;95080.00;;;;8313116;28;21518;-77
2021/12/27 19:44:20;;;;;;;103.83;22.57;;;;;3.40;95080.00;;;;8311285;28;20227;-77
2021/12/27 19:48:24;;;;;;;97.87;23.47;;;;;3.40;95086.00;;;;8313120;28;20316;-78
2021/12/27 19:52:27;;;;;;;106.40;24.33;;;;;3.40;95087.00;;;;8309405;28;20229;-77
2021/12/27 19:56:31;;;;;;;139.97;27.67;;;;;3.40;95084.00;;;;8305820;28;20303;-77
2021/12/27 20:00:36;;;;;;;106.50;24.83;;;;;3.40;95076.00;;;;8301294;28;20234;-76
2021/12/27 20:04:41;;;;;;;142.40;27.00;;;;;3.30;95071.00;;;;8300556;28;20229;-78